Cordell, Kentucky
Current Conditions -  °F | °C
As of 6:15 PM on Monday 22 Dec 2014 (Local Time) from KSJS Reporting Station
Scattered Clouds Scattered Clouds  
Wind Chill: 51°   Ceiling: Unl
Heat Index: 51°   Visibility: 10mi
Dew Point: 40°   Wind: 5mph
Humidity: 67%   Direction: 110°ESE
Pressure: 29.85"   Gusts: NA
Location:  38.0348°N, 82.8583°W
Report Text: KSJS 222315Z AUTO 11004KT 10SM SCT120 11/05 A2985 RMK AO2 T01050045
Loading
Personal Weather Stations






























Interactive Weather Map New forecast layout! Learn more

10-Day Weather Forecast

Advertisements
Track Severe Weather on mobile